ITY333 LFPG-LIRF
Flight info
| Callsign | ITY333 |
|---|---|
| Flight time | 1h 35m |
| Altitude | 37000 |
| Route | OKASI DCT OKEKO DCT MOU DCT MADIV DCT MOKIP DCT TUFTA DCT KOGAS DCT MEDAM DCT NITAM DCT MOGBO DCT ELB/N0442F380 DCT ELKAP |
| Aircraft | A320/M-SDE3FGHIRWY/LB1 |
Departure
| Time | 2026-05-05 12:17 |
|---|---|
| Airport | Charles de Gaulle International Airport (LFPG) |
Arrival
| Time | 2026-05-05 13:53 |
|---|---|
| Airport | Rome–Fiumicino Leonardo da Vinci International Airport (LIRF) |
| Time | Latitude | Longitude | Altitude | Speed | Heading |
|---|---|---|---|---|---|
| 2026-05-05 11:53 | 49.00567 | 2.56736 | 355 ft | 0 kts | 175° |
| 2026-05-05 12:03 | 49.00568 | 2.56735 | 354 ft | 2 kts | 175° |
| 2026-05-05 12:03 | 49.00585 | 2.56733 | 362 ft | 2 kts | 175° |
| 2026-05-05 12:03 | 49.00602 | 2.56730 | 357 ft | 2 kts | 195° |
| 2026-05-05 12:04 | 49.00615 | 2.56744 | 362 ft | 2 kts | 265° |
| 2026-05-05 12:04 | 49.00615 | 2.56749 | 362 ft | 0 kts | 266° |
| 2026-05-05 12:07 | 49.00615 | 2.56658 | 354 ft | 13 kts | 274° |
| 2026-05-05 12:07 | 49.00616 | 2.56596 | 354 ft | 0 kts | 268° |
| 2026-05-05 12:11 | 49.00616 | 2.56590 | 354 ft | 4 kts | 266° |
| 2026-05-05 12:12 | 49.00605 | 2.56426 | 354 ft | 22 kts | 268° |
| 2026-05-05 12:12 | 49.00601 | 2.56241 | 354 ft | 12 kts | 263° |
| 2026-05-05 12:12 | 49.00590 | 2.56123 | 361 ft | 11 kts | 261° |
| 2026-05-05 12:12 | 49.00567 | 2.55999 | 358 ft | 13 kts | 259° |
| 2026-05-05 12:13 | 49.00568 | 2.55867 | 358 ft | 13 kts | 272° |
| 2026-05-05 12:13 | 49.00562 | 2.55707 | 359 ft | 18 kts | 266° |
| 2026-05-05 12:13 | 49.00554 | 2.55509 | 356 ft | 18 kts | 264° |
| 2026-05-05 12:13 | 49.00532 | 2.55381 | 361 ft | 10 kts | 226° |
| 2026-05-05 12:14 | 49.00474 | 2.55331 | 354 ft | 9 kts | 203° |
| 2026-05-05 12:14 | 49.00409 | 2.55346 | 356 ft | 14 kts | 162° |
| 2026-05-05 12:14 | 49.00262 | 2.55408 | 360 ft | 29 kts | 164° |
| 2026-05-05 12:14 | 49.00050 | 2.55502 | 356 ft | 29 kts | 164° |
| 2026-05-05 12:15 | 48.99880 | 2.55604 | 357 ft | 23 kts | 136° |
| 2026-05-05 12:15 | 48.99822 | 2.55785 | 357 ft | 12 kts | 114° |
| 2026-05-05 12:15 | 48.99752 | 2.55806 | 357 ft | 10 kts | 178° |
| 2026-05-05 12:15 | 48.99687 | 2.55812 | 354 ft | 9 kts | 174° |
| 2026-05-05 12:16 | 48.99620 | 2.55822 | 354 ft | 13 kts | 174° |
| 2026-05-05 12:16 | 48.99601 | 2.55849 | 357 ft | 4 kts | 91° |
| 2026-05-05 12:16 | 48.99603 | 2.55873 | 353 ft | 0 kts | 84° |
| 2026-05-05 12:16 | 48.99605 | 2.55911 | 353 ft | 23 kts | 85° |
| 2026-05-05 12:17 | 48.99645 | 2.56576 | 355 ft | 99 kts | 85° |
| 2026-05-05 12:17 | 48.99722 | 2.57927 | 365 ft | 153 kts | 76° |
| 2026-05-05 12:17 | 48.99841 | 2.59551 | 960 ft | 154 kts | 82° |
| 2026-05-05 12:17 | 48.99940 | 2.61263 | 1513 ft | 170 kts | 80° |
| 2026-05-05 12:18 | 49.00039 | 2.63134 | 1874 ft | 191 kts | 81° |
| 2026-05-05 12:18 | 49.00163 | 2.65289 | 2124 ft | 222 kts | 83° |
| 2026-05-05 12:18 | 49.00289 | 2.67777 | 2720 ft | 242 kts | 84° |
| 2026-05-05 12:18 | 49.00413 | 2.70372 | 3656 ft | 249 kts | 86° |
| 2026-05-05 12:19 | 49.00538 | 2.73030 | 4705 ft | 255 kts | 85° |
| 2026-05-05 12:19 | 49.00667 | 2.75740 | 5736 ft | 258 kts | 85° |
| 2026-05-05 12:19 | 49.00705 | 2.78453 | 6675 ft | 263 kts | 95° |
| 2026-05-05 12:19 | 49.00459 | 2.81241 | 7611 ft | 267 kts | 97° |
| 2026-05-05 12:20 | 49.00157 | 2.84054 | 8510 ft | 271 kts | 98° |
| 2026-05-05 12:20 | 48.99835 | 2.86907 | 9404 ft | 275 kts | 98° |
| 2026-05-05 12:20 | 48.99509 | 2.89810 | 10142 ft | 285 kts | 98° |
| 2026-05-05 12:20 | 48.99127 | 2.92892 | 10452 ft | 308 kts | 106° |
| 2026-05-05 12:21 | 48.98092 | 2.95807 | 11059 ft | 321 kts | 129° |
| 2026-05-05 12:21 | 48.96302 | 2.97867 | 11833 ft | 329 kts | 154° |
| 2026-05-05 12:21 | 48.94049 | 2.98576 | 12632 ft | 338 kts | 180° |
| 2026-05-05 12:21 | 48.91697 | 2.98123 | 13447 ft | 342 kts | 186° |
| 2026-05-05 12:22 | 48.89339 | 2.97538 | 14171 ft | 345 kts | 187° |
| 2026-05-05 12:22 | 48.86956 | 2.96923 | 14904 ft | 348 kts | 187° |
| 2026-05-05 12:22 | 48.84560 | 2.96305 | 15666 ft | 351 kts | 187° |
| 2026-05-05 12:22 | 48.82140 | 2.95690 | 16426 ft | 354 kts | 187° |
| 2026-05-05 12:23 | 48.79699 | 2.95081 | 17149 ft | 357 kts | 187° |
| 2026-05-05 12:23 | 48.77238 | 2.94470 | 17870 ft | 360 kts | 187° |
| 2026-05-05 12:23 | 48.74752 | 2.93858 | 18513 ft | 363 kts | 187° |
| 2026-05-05 12:23 | 48.72249 | 2.93245 | 19128 ft | 366 kts | 187° |
| 2026-05-05 12:24 | 48.69721 | 2.92629 | 19736 ft | 368 kts | 187° |
| 2026-05-05 12:24 | 48.67189 | 2.92014 | 20329 ft | 371 kts | 187° |
| 2026-05-05 12:24 | 48.64624 | 2.91393 | 20942 ft | 374 kts | 187° |
| 2026-05-05 12:24 | 48.62040 | 2.90766 | 21545 ft | 377 kts | 187° |
| 2026-05-05 12:25 | 48.59447 | 2.90133 | 22118 ft | 380 kts | 188° |
| 2026-05-05 12:25 | 48.56823 | 2.89489 | 22691 ft | 383 kts | 188° |
| 2026-05-05 12:25 | 48.54221 | 2.88848 | 23307 ft | 386 kts | 188° |
| 2026-05-05 12:25 | 48.51563 | 2.88193 | 23864 ft | 389 kts | 188° |
| 2026-05-05 12:26 | 48.48882 | 2.87539 | 24371 ft | 391 kts | 187° |
| 2026-05-05 12:26 | 48.46186 | 2.86888 | 24831 ft | 393 kts | 187° |
| 2026-05-05 12:26 | 48.43482 | 2.86238 | 25279 ft | 395 kts | 187° |
| 2026-05-05 12:26 | 48.40762 | 2.85582 | 25723 ft | 397 kts | 187° |
| 2026-05-05 12:27 | 48.38024 | 2.84919 | 26182 ft | 401 kts | 187° |
| 2026-05-05 12:27 | 48.35258 | 2.84251 | 26636 ft | 404 kts | 187° |
| 2026-05-05 12:27 | 48.32468 | 2.83578 | 27132 ft | 407 kts | 187° |
| 2026-05-05 12:27 | 48.29665 | 2.82903 | 27627 ft | 410 kts | 187° |
| 2026-05-05 12:28 | 48.26841 | 2.82221 | 28118 ft | 412 kts | 187° |
| 2026-05-05 12:28 | 48.23998 | 2.81537 | 28542 ft | 415 kts | 187° |
| 2026-05-05 12:28 | 48.21133 | 2.80850 | 28907 ft | 417 kts | 187° |
| 2026-05-05 12:28 | 48.18260 | 2.80163 | 29291 ft | 419 kts | 187° |
| 2026-05-05 12:29 | 48.15368 | 2.79471 | 29604 ft | 423 kts | 187° |
| 2026-05-05 12:29 | 48.12450 | 2.78809 | 29920 ft | 425 kts | 183° |
| 2026-05-05 12:29 | 48.09498 | 2.78702 | 30214 ft | 424 kts | 174° |
| 2026-05-05 12:29 | 48.06577 | 2.79328 | 30468 ft | 426 kts | 165° |
| 2026-05-05 12:30 | 48.03739 | 2.80683 | 30594 ft | 430 kts | 156° |
| 2026-05-05 12:30 | 48.00974 | 2.82460 | 30717 ft | 434 kts | 155° |
| 2026-05-05 12:30 | 47.98183 | 2.84247 | 30862 ft | 438 kts | 155° |
| 2026-05-05 12:30 | 47.95373 | 2.86040 | 31068 ft | 440 kts | 156° |
| 2026-05-05 12:31 | 47.92556 | 2.87827 | 31317 ft | 440 kts | 156° |
| 2026-05-05 12:31 | 47.89732 | 2.89613 | 31600 ft | 440 kts | 156° |
| 2026-05-05 12:31 | 47.86920 | 2.91390 | 31892 ft | 439 kts | 156° |
| 2026-05-05 12:31 | 47.84114 | 2.93161 | 32197 ft | 438 kts | 156° |
| 2026-05-05 12:32 | 47.81310 | 2.94931 | 32568 ft | 437 kts | 156° |
| 2026-05-05 12:32 | 47.78513 | 2.96694 | 32919 ft | 435 kts | 156° |
| 2026-05-05 12:32 | 47.75765 | 2.98422 | 33293 ft | 434 kts | 157° |
| 2026-05-05 12:32 | 47.72985 | 3.00166 | 33591 ft | 434 kts | 157° |
| 2026-05-05 12:33 | 47.70199 | 3.01912 | 33865 ft | 434 kts | 157° |
| 2026-05-05 12:33 | 47.67419 | 3.03657 | 34094 ft | 434 kts | 157° |
| 2026-05-05 12:33 | 47.64639 | 3.05409 | 34329 ft | 434 kts | 157° |
| 2026-05-05 12:33 | 47.61862 | 3.07157 | 34561 ft | 434 kts | 157° |
| 2026-05-05 12:34 | 47.60017 | 3.08316 | 34712 ft | 434 kts | 158° |
| 2026-05-05 12:34 | 47.57236 | 3.10055 | 34944 ft | 434 kts | 158° |
| 2026-05-05 12:34 | 47.53512 | 3.12376 | 35242 ft | 434 kts | 158° |
| 2026-05-05 12:34 | 47.51666 | 3.13524 | 35376 ft | 435 kts | 158° |
| 2026-05-05 12:35 | 47.48843 | 3.15281 | 35588 ft | 435 kts | 158° |
| 2026-05-05 12:35 | 47.46087 | 3.16998 | 35786 ft | 435 kts | 158° |
| 2026-05-05 12:35 | 47.43258 | 3.18757 | 35992 ft | 436 kts | 158° |
| 2026-05-05 12:35 | 47.40461 | 3.20492 | 36190 ft | 436 kts | 158° |
| 2026-05-05 12:36 | 47.37702 | 3.22199 | 36395 ft | 436 kts | 159° |
| 2026-05-05 12:36 | 47.34905 | 3.23929 | 36610 ft | 436 kts | 159° |
| 2026-05-05 12:36 | 47.32108 | 3.25660 | 36796 ft | 437 kts | 159° |
| 2026-05-05 12:36 | 47.29305 | 3.27391 | 36857 ft | 438 kts | 159° |
| 2026-05-05 12:37 | 47.23683 | 3.30857 | 36851 ft | 438 kts | 159° |
| 2026-05-05 12:37 | 47.18072 | 3.34313 | 36865 ft | 437 kts | 159° |
| 2026-05-05 12:38 | 47.12455 | 3.37765 | 36861 ft | 437 kts | 159° |
| 2026-05-05 12:38 | 47.06852 | 3.41201 | 36866 ft | 437 kts | 159° |
| 2026-05-05 12:39 | 47.01230 | 3.44639 | 36873 ft | 437 kts | 159° |
| 2026-05-05 12:39 | 46.95634 | 3.48046 | 36877 ft | 438 kts | 159° |
| 2026-05-05 12:40 | 46.90009 | 3.51462 | 36876 ft | 438 kts | 160° |
| 2026-05-05 12:40 | 46.84370 | 3.54878 | 36878 ft | 438 kts | 160° |
| 2026-05-05 12:41 | 46.78735 | 3.58286 | 36879 ft | 439 kts | 160° |
| 2026-05-05 12:41 | 46.73483 | 3.62813 | 36881 ft | 445 kts | 140° |
| 2026-05-05 12:42 | 46.71395 | 3.66162 | 36879 ft | 449 kts | 128° |
| 2026-05-05 12:42 | 46.69804 | 3.70090 | 36874 ft | 454 kts | 117° |
| 2026-05-05 12:42 | 46.68012 | 3.78955 | 36865 ft | 458 kts | 107° |
| 2026-05-05 12:43 | 46.66480 | 3.87972 | 36866 ft | 459 kts | 107° |
| 2026-05-05 12:43 | 46.64939 | 3.96928 | 36868 ft | 460 kts | 107° |
| 2026-05-05 12:44 | 46.63371 | 4.05942 | 36853 ft | 460 kts | 107° |
| 2026-05-05 12:44 | 46.61801 | 4.14965 | 36861 ft | 460 kts | 107° |
| 2026-05-05 12:45 | 46.60229 | 4.23994 | 36866 ft | 460 kts | 108° |
| 2026-05-05 12:45 | 46.58642 | 4.33013 | 36875 ft | 461 kts | 108° |
| 2026-05-05 12:46 | 46.57051 | 4.42044 | 36887 ft | 461 kts | 108° |
| 2026-05-05 12:46 | 46.55450 | 4.51079 | 36893 ft | 461 kts | 108° |
| 2026-05-05 12:47 | 46.53836 | 4.60114 | 36903 ft | 462 kts | 108° |
| 2026-05-05 12:47 | 46.52212 | 4.69135 | 36912 ft | 462 kts | 108° |
| 2026-05-05 12:48 | 46.50576 | 4.78160 | 36912 ft | 462 kts | 108° |
| 2026-05-05 12:48 | 46.48956 | 4.87121 | 36899 ft | 462 kts | 108° |
| 2026-05-05 12:49 | 46.47320 | 4.96135 | 36905 ft | 462 kts | 108° |
| 2026-05-05 12:49 | 46.45673 | 5.05132 | 36907 ft | 462 kts | 109° |
| 2026-05-05 12:50 | 46.44012 | 5.14148 | 36901 ft | 462 kts | 109° |
| 2026-05-05 12:50 | 46.42349 | 5.23159 | 36886 ft | 463 kts | 109° |
| 2026-05-05 12:51 | 46.40678 | 5.32178 | 36889 ft | 464 kts | 109° |
| 2026-05-05 12:51 | 46.38645 | 5.40985 | 36890 ft | 457 kts | 121° |
| 2026-05-05 12:52 | 46.35085 | 5.48464 | 36901 ft | 449 kts | 135° |
| 2026-05-05 12:52 | 46.31020 | 5.55322 | 36901 ft | 449 kts | 135° |
| 2026-05-05 12:53 | 46.26958 | 5.62200 | 36890 ft | 450 kts | 135° |
| 2026-05-05 12:53 | 46.22911 | 5.69029 | 36899 ft | 451 kts | 135° |
| 2026-05-05 12:54 | 46.16782 | 5.79355 | 36907 ft | 452 kts | 135° |
| 2026-05-05 12:55 | 46.12677 | 5.86253 | 36913 ft | 454 kts | 135° |
| 2026-05-05 12:55 | 46.08561 | 5.93142 | 36920 ft | 453 kts | 135° |
| 2026-05-05 12:56 | 46.04435 | 6.00024 | 36934 ft | 454 kts | 135° |
| 2026-05-05 12:56 | 46.00305 | 6.06894 | 36935 ft | 454 kts | 136° |
| 2026-05-05 12:57 | 45.96170 | 6.13759 | 36935 ft | 455 kts | 136° |
| 2026-05-05 12:57 | 45.92024 | 6.20617 | 36944 ft | 454 kts | 136° |
| 2026-05-05 12:58 | 45.87881 | 6.27478 | 36943 ft | 454 kts | 136° |
| 2026-05-05 12:58 | 45.83743 | 6.34317 | 36913 ft | 454 kts | 136° |
| 2026-05-05 12:59 | 45.79317 | 6.40663 | 36927 ft | 444 kts | 149° |
| 2026-05-05 12:59 | 45.74290 | 6.45776 | 36931 ft | 443 kts | 150° |
| 2026-05-05 13:00 | 45.66737 | 6.53434 | 36931 ft | 444 kts | 150° |
| 2026-05-05 13:01 | 45.56656 | 6.63646 | 36935 ft | 445 kts | 150° |
| 2026-05-05 13:01 | 45.51617 | 6.68739 | 36942 ft | 443 kts | 151° |
| 2026-05-05 13:02 | 45.46621 | 6.73774 | 36964 ft | 443 kts | 151° |
| 2026-05-05 13:02 | 45.41581 | 6.78848 | 36972 ft | 445 kts | 151° |
| 2026-05-05 13:03 | 45.36544 | 6.83909 | 36967 ft | 442 kts | 151° |
| 2026-05-05 13:03 | 45.31512 | 6.88938 | 36969 ft | 442 kts | 151° |
| 2026-05-05 13:04 | 45.26503 | 6.94031 | 36971 ft | 446 kts | 146° |
| 2026-05-05 13:04 | 45.21971 | 7.00141 | 36966 ft | 450 kts | 142° |
| 2026-05-05 13:05 | 45.17481 | 7.06348 | 36979 ft | 450 kts | 143° |
| 2026-05-05 13:05 | 45.12990 | 7.12521 | 36967 ft | 450 kts | 143° |
| 2026-05-05 13:06 | 45.08857 | 7.19258 | 36976 ft | 459 kts | 131° |
| 2026-05-05 13:06 | 45.05188 | 7.26670 | 36983 ft | 460 kts | 132° |
| 2026-05-05 13:07 | 45.01519 | 7.34077 | 36986 ft | 459 kts | 132° |
| 2026-05-05 13:07 | 44.97742 | 7.41336 | 36997 ft | 453 kts | 139° |
| 2026-05-05 13:08 | 44.93320 | 7.47586 | 36976 ft | 450 kts | 142° |
| 2026-05-05 13:08 | 44.88868 | 7.53806 | 36985 ft | 451 kts | 142° |
| 2026-05-05 13:09 | 44.84416 | 7.60037 | 36992 ft | 451 kts | 142° |
| 2026-05-05 13:09 | 44.79951 | 7.66257 | 36992 ft | 451 kts | 142° |
| 2026-05-05 13:10 | 44.75476 | 7.72459 | 37002 ft | 451 kts | 142° |
| 2026-05-05 13:10 | 44.71001 | 7.78652 | 36988 ft | 451 kts | 142° |
| 2026-05-05 13:11 | 44.66522 | 7.84846 | 36997 ft | 452 kts | 142° |
| 2026-05-05 13:11 | 44.62037 | 7.91035 | 37000 ft | 452 kts | 142° |
| 2026-05-05 13:12 | 44.57546 | 7.97218 | 36978 ft | 452 kts | 142° |
| 2026-05-05 13:12 | 44.53045 | 8.03386 | 36985 ft | 453 kts | 142° |
| 2026-05-05 13:13 | 44.48539 | 8.09558 | 36990 ft | 453 kts | 142° |
| 2026-05-05 13:13 | 44.44027 | 8.15722 | 36991 ft | 453 kts | 142° |
| 2026-05-05 13:14 | 44.39508 | 8.21884 | 36992 ft | 453 kts | 142° |
| 2026-05-05 13:14 | 44.35018 | 8.27997 | 36995 ft | 453 kts | 142° |
| 2026-05-05 13:15 | 44.30498 | 8.34143 | 36973 ft | 453 kts | 142° |
| 2026-05-05 13:15 | 44.25965 | 8.40273 | 36970 ft | 454 kts | 142° |
| 2026-05-05 13:16 | 44.21417 | 8.46418 | 36976 ft | 455 kts | 142° |
| 2026-05-05 13:16 | 44.16866 | 8.52556 | 36982 ft | 455 kts | 142° |
| 2026-05-05 13:17 | 44.12309 | 8.58686 | 36983 ft | 456 kts | 142° |
| 2026-05-05 13:17 | 44.07744 | 8.64808 | 36960 ft | 456 kts | 142° |
| 2026-05-05 13:18 | 44.03163 | 8.70932 | 36964 ft | 457 kts | 142° |
| 2026-05-05 13:18 | 43.98575 | 8.77061 | 36964 ft | 458 kts | 142° |
| 2026-05-05 13:19 | 43.94722 | 8.82194 | 36975 ft | 458 kts | 143° |
| 2026-05-05 13:19 | 43.90116 | 8.88320 | 36981 ft | 459 kts | 143° |
| 2026-05-05 13:20 | 43.85536 | 8.94410 | 36957 ft | 460 kts | 143° |
| 2026-05-05 13:20 | 43.80907 | 9.00538 | 36964 ft | 461 kts | 143° |
| 2026-05-05 13:21 | 43.76237 | 9.06715 | 36967 ft | 462 kts | 143° |
| 2026-05-05 13:21 | 43.71623 | 9.12809 | 36959 ft | 462 kts | 143° |
| 2026-05-05 13:22 | 43.66965 | 9.18939 | 36973 ft | 463 kts | 143° |
| 2026-05-05 13:22 | 43.62295 | 9.25060 | 36969 ft | 463 kts | 143° |
| 2026-05-05 13:23 | 43.57615 | 9.31174 | 36979 ft | 464 kts | 143° |
| 2026-05-05 13:23 | 43.52900 | 9.37336 | 36986 ft | 464 kts | 143° |
| 2026-05-05 13:24 | 43.48215 | 9.43445 | 37004 ft | 464 kts | 143° |
| 2026-05-05 13:24 | 43.43521 | 9.49556 | 36946 ft | 465 kts | 143° |
| 2026-05-05 13:25 | 43.38835 | 9.55632 | 36960 ft | 467 kts | 144° |
| 2026-05-05 13:25 | 43.34097 | 9.61769 | 36966 ft | 468 kts | 144° |
| 2026-05-05 13:26 | 43.29350 | 9.67902 | 36969 ft | 469 kts | 144° |
| 2026-05-05 13:26 | 43.24589 | 9.74036 | 36981 ft | 470 kts | 144° |
| 2026-05-05 13:27 | 43.19822 | 9.80166 | 36972 ft | 470 kts | 144° |
| 2026-05-05 13:27 | 43.15044 | 9.86297 | 36952 ft | 471 kts | 143° |
| 2026-05-05 13:28 | 43.10255 | 9.92422 | 36966 ft | 471 kts | 144° |
| 2026-05-05 13:28 | 43.05466 | 9.98544 | 36980 ft | 471 kts | 144° |
| 2026-05-05 13:29 | 43.00670 | 10.04659 | 36990 ft | 471 kts | 144° |
| 2026-05-05 13:29 | 42.95871 | 10.10772 | 36968 ft | 472 kts | 144° |
| 2026-05-05 13:30 | 42.91063 | 10.16872 | 36975 ft | 472 kts | 144° |
| 2026-05-05 13:30 | 42.86242 | 10.22973 | 36968 ft | 473 kts | 143° |
| 2026-05-05 13:31 | 42.81413 | 10.29057 | 36984 ft | 473 kts | 144° |
| 2026-05-05 13:31 | 42.78998 | 10.32102 | 36398 ft | 476 kts | 142° |
| 2026-05-05 13:31 | 42.76752 | 10.35501 | 35283 ft | 491 kts | 133° |
| 2026-05-05 13:32 | 42.74907 | 10.39486 | 34210 ft | 504 kts | 122° |
| 2026-05-05 13:32 | 42.73557 | 10.43943 | 33021 ft | 516 kts | 110° |
| 2026-05-05 13:32 | 42.72780 | 10.48742 | 31869 ft | 521 kts | 99° |
| 2026-05-05 13:32 | 42.72502 | 10.53640 | 30261 ft | 521 kts | 95° |
| 2026-05-05 13:33 | 42.72270 | 10.58576 | 29009 ft | 522 kts | 98° |
| 2026-05-05 13:33 | 42.71591 | 10.63322 | 28737 ft | 499 kts | 109° |
| 2026-05-05 13:33 | 42.70448 | 10.67656 | 28505 ft | 478 kts | 118° |
| 2026-05-05 13:33 | 42.68886 | 10.71536 | 28245 ft | 459 kts | 126° |
| 2026-05-05 13:34 | 42.67213 | 10.75171 | 27934 ft | 448 kts | 126° |
| 2026-05-05 13:34 | 42.65570 | 10.78738 | 27392 ft | 443 kts | 126° |
| 2026-05-05 13:34 | 42.63941 | 10.82275 | 26849 ft | 439 kts | 126° |
| 2026-05-05 13:34 | 42.62332 | 10.85774 | 26321 ft | 435 kts | 126° |
| 2026-05-05 13:35 | 42.60736 | 10.89239 | 25811 ft | 431 kts | 126° |
| 2026-05-05 13:35 | 42.59152 | 10.92672 | 25307 ft | 427 kts | 126° |
| 2026-05-05 13:35 | 42.57584 | 10.96073 | 24817 ft | 424 kts | 126° |
| 2026-05-05 13:35 | 42.56028 | 10.99451 | 24342 ft | 420 kts | 126° |
| 2026-05-05 13:36 | 42.54485 | 11.02795 | 23878 ft | 417 kts | 126° |
| 2026-05-05 13:36 | 42.52962 | 11.06094 | 23176 ft | 409 kts | 126° |
| 2026-05-05 13:36 | 42.51458 | 11.09340 | 22227 ft | 404 kts | 126° |
| 2026-05-05 13:36 | 42.49973 | 11.12538 | 21373 ft | 401 kts | 126° |
| 2026-05-05 13:37 | 42.48493 | 11.15718 | 20940 ft | 396 kts | 126° |
| 2026-05-05 13:37 | 42.47029 | 11.18861 | 20497 ft | 392 kts | 126° |
| 2026-05-05 13:37 | 42.45590 | 11.21950 | 20279 ft | 382 kts | 126° |
| 2026-05-05 13:37 | 42.44199 | 11.24941 | 20150 ft | 370 kts | 126° |
| 2026-05-05 13:38 | 42.42861 | 11.27820 | 19869 ft | 363 kts | 126° |
| 2026-05-05 13:38 | 42.41507 | 11.30727 | 19462 ft | 357 kts | 126° |
| 2026-05-05 13:38 | 42.40188 | 11.33557 | 18757 ft | 354 kts | 126° |
| 2026-05-05 13:38 | 42.38881 | 11.36354 | 18091 ft | 350 kts | 126° |
| 2026-05-05 13:39 | 42.37604 | 11.39085 | 17376 ft | 346 kts | 126° |
| 2026-05-05 13:39 | 42.36325 | 11.41817 | 16652 ft | 342 kts | 126° |
| 2026-05-05 13:39 | 42.35058 | 11.44515 | 16044 ft | 336 kts | 126° |
| 2026-05-05 13:39 | 42.33813 | 11.47167 | 15605 ft | 333 kts | 126° |
| 2026-05-05 13:40 | 42.32577 | 11.49796 | 15161 ft | 330 kts | 126° |
| 2026-05-05 13:40 | 42.31348 | 11.52403 | 14722 ft | 328 kts | 126° |
| 2026-05-05 13:40 | 42.30129 | 11.54993 | 14287 ft | 325 kts | 126° |
| 2026-05-05 13:40 | 42.28918 | 11.57570 | 13844 ft | 325 kts | 126° |
| 2026-05-05 13:41 | 42.27701 | 11.60152 | 13384 ft | 326 kts | 126° |
| 2026-05-05 13:41 | 42.26488 | 11.62720 | 13055 ft | 323 kts | 126° |
| 2026-05-05 13:41 | 42.25276 | 11.65287 | 12664 ft | 322 kts | 126° |
| 2026-05-05 13:41 | 42.24081 | 11.67816 | 12324 ft | 319 kts | 126° |
| 2026-05-05 13:42 | 42.22890 | 11.70337 | 11944 ft | 318 kts | 126° |
| 2026-05-05 13:42 | 42.21709 | 11.72837 | 11568 ft | 313 kts | 126° |
| 2026-05-05 13:42 | 42.20552 | 11.75321 | 10892 ft | 312 kts | 125° |
| 2026-05-05 13:42 | 42.19441 | 11.77789 | 10437 ft | 303 kts | 125° |
| 2026-05-05 13:43 | 42.18378 | 11.80183 | 10042 ft | 292 kts | 124° |
| 2026-05-05 13:43 | 42.17359 | 11.82489 | 9620 ft | 281 kts | 125° |
| 2026-05-05 13:43 | 42.16376 | 11.84708 | 9250 ft | 270 kts | 125° |
| 2026-05-05 13:43 | 42.15431 | 11.86832 | 8905 ft | 259 kts | 125° |
| 2026-05-05 13:44 | 42.14517 | 11.88875 | 8568 ft | 249 kts | 125° |
| 2026-05-05 13:44 | 42.13636 | 11.90841 | 8245 ft | 242 kts | 126° |
| 2026-05-05 13:44 | 42.12769 | 11.92764 | 7926 ft | 239 kts | 125° |
| 2026-05-05 13:44 | 42.11906 | 11.94667 | 7613 ft | 237 kts | 126° |
| 2026-05-05 13:45 | 42.11042 | 11.96573 | 7306 ft | 240 kts | 125° |
| 2026-05-05 13:45 | 42.10172 | 11.98492 | 6981 ft | 241 kts | 126° |
| 2026-05-05 13:45 | 42.09302 | 12.00420 | 6659 ft | 241 kts | 126° |
| 2026-05-05 13:45 | 42.08436 | 12.02339 | 6330 ft | 239 kts | 126° |
| 2026-05-05 13:46 | 42.07575 | 12.04250 | 5953 ft | 239 kts | 126° |
| 2026-05-05 13:46 | 42.06722 | 12.06145 | 5622 ft | 233 kts | 126° |
| 2026-05-05 13:46 | 42.05888 | 12.07985 | 5310 ft | 227 kts | 124° |
| 2026-05-05 13:46 | 42.05076 | 12.09775 | 5009 ft | 222 kts | 124° |
| 2026-05-05 13:47 | 42.04274 | 12.11541 | 4711 ft | 221 kts | 126° |
| 2026-05-05 13:47 | 42.03475 | 12.13302 | 4415 ft | 220 kts | 125° |
| 2026-05-05 13:47 | 42.02806 | 12.15165 | 4121 ft | 222 kts | 118° |
| 2026-05-05 13:47 | 42.02193 | 12.17075 | 3779 ft | 222 kts | 123° |
| 2026-05-05 13:48 | 42.01275 | 12.18660 | 3465 ft | 207 kts | 143° |
| 2026-05-05 13:48 | 42.00110 | 12.19616 | 3227 ft | 187 kts | 163° |
| 2026-05-05 13:48 | 41.98934 | 12.20127 | 2989 ft | 170 kts | 166° |
| 2026-05-05 13:48 | 41.97873 | 12.20576 | 2765 ft | 150 kts | 166° |
| 2026-05-05 13:49 | 41.96915 | 12.20979 | 2574 ft | 140 kts | 166° |
| 2026-05-05 13:49 | 41.96001 | 12.21363 | 2394 ft | 135 kts | 166° |
| 2026-05-05 13:49 | 41.95108 | 12.21737 | 2207 ft | 133 kts | 166° |
| 2026-05-05 13:49 | 41.94233 | 12.22105 | 2037 ft | 132 kts | 165° |
| 2026-05-05 13:50 | 41.93354 | 12.22474 | 1878 ft | 132 kts | 164° |
| 2026-05-05 13:50 | 41.92481 | 12.22840 | 1697 ft | 131 kts | 163° |
| 2026-05-05 13:50 | 41.91612 | 12.23206 | 1512 ft | 130 kts | 164° |
| 2026-05-05 13:50 | 41.90760 | 12.23563 | 1348 ft | 130 kts | 164° |
| 2026-05-05 13:51 | 41.89897 | 12.23925 | 1171 ft | 130 kts | 164° |
| 2026-05-05 13:51 | 41.89032 | 12.24288 | 993 ft | 131 kts | 163° |
| 2026-05-05 13:51 | 41.88174 | 12.24648 | 823 ft | 128 kts | 163° |
| 2026-05-05 13:51 | 41.87296 | 12.25016 | 646 ft | 133 kts | 163° |
| 2026-05-05 13:52 | 41.86414 | 12.25386 | 446 ft | 133 kts | 160° |
| 2026-05-05 13:52 | 41.85536 | 12.25755 | 253 ft | 130 kts | 160° |
| 2026-05-05 13:52 | 41.84687 | 12.26111 | 87 ft | 127 kts | 160° |
| 2026-05-05 13:52 | 41.83887 | 12.26441 | 21 ft | 109 kts | 161° |
| 2026-05-05 13:53 | 41.83301 | 12.26698 | 12 ft | 65 kts | 164° |
| 2026-05-05 13:53 | 41.83009 | 12.26818 | 12 ft | 33 kts | 162° |
| 2026-05-05 13:53 | 41.82809 | 12.26868 | 13 ft | 27 kts | 176° |
| 2026-05-05 13:53 | 41.82641 | 12.26850 | 10 ft | 23 kts | 191° |
| 2026-05-05 13:54 | 41.82497 | 12.26808 | 11 ft | 21 kts | 192° |
| 2026-05-05 13:54 | 41.82354 | 12.26778 | 11 ft | 20 kts | 174° |
| 2026-05-05 13:54 | 41.82220 | 12.26822 | 11 ft | 20 kts | 161° |
| 2026-05-05 13:54 | 41.82088 | 12.26876 | 11 ft | 20 kts | 162° |
| 2026-05-05 13:55 | 41.81955 | 12.26933 | 11 ft | 20 kts | 163° |
| 2026-05-05 13:55 | 41.81822 | 12.26987 | 13 ft | 20 kts | 163° |
| 2026-05-05 13:55 | 41.81689 | 12.27043 | 12 ft | 20 kts | 163° |
| 2026-05-05 13:55 | 41.81556 | 12.27099 | 12 ft | 20 kts | 162° |
| 2026-05-05 13:56 | 41.81416 | 12.27158 | 13 ft | 22 kts | 162° |
| 2026-05-05 13:56 | 41.81278 | 12.27216 | 12 ft | 17 kts | 163° |
| 2026-05-05 13:56 | 41.81240 | 12.27231 | 12 ft | 0 kts | 162° |
| 2026-05-05 13:57 | 41.81222 | 12.27239 | 12 ft | 9 kts | 162° |
| 2026-05-05 13:57 | 41.81120 | 12.27281 | 12 ft | 20 kts | 162° |
| 2026-05-05 13:57 | 41.80988 | 12.27340 | 13 ft | 20 kts | 163° |
| 2026-05-05 13:57 | 41.80853 | 12.27335 | 13 ft | 20 kts | 189° |
| 2026-05-05 13:58 | 41.80712 | 12.27298 | 13 ft | 21 kts | 204° |
| 2026-05-05 13:58 | 41.80632 | 12.27140 | 13 ft | 22 kts | 251° |
| 2026-05-05 13:58 | 41.80577 | 12.26941 | 13 ft | 24 kts | 249° |
| 2026-05-05 13:58 | 41.80518 | 12.26721 | 15 ft | 26 kts | 249° |
| 2026-05-05 13:59 | 41.80369 | 12.26372 | 14 ft | 19 kts | 181° |
| 2026-05-05 13:59 | 41.80240 | 12.26409 | 14 ft | 19 kts | 184° |
| 2026-05-05 14:00 | 41.80122 | 12.26266 | 14 ft | 15 kts | 292° |
| 2026-05-05 14:00 | 41.80149 | 12.26198 | 15 ft | 5 kts | 288° |
| 2026-05-05 14:00 | 41.80091 | 12.26149 | 14 ft | 0 kts | 203° |